Bg Felixstowe — V2BR7 — position and weather

sailwx.info

Track history (hours):
 
Tides and Currents Weather Stations Pressure Air Temp Water Temp Dewpoint Dewpoint Depression Visibility Wind Speed Wind Dir Waves Ship Positions

Bg Felixstowe

Last reported at 2015-Apr-16 04:32 UTC. Time now 2015-Apr-21 11:40 UTC.
Position N 25°32' W 079°60'.

Length 139 m; draft 6.8 m.

Type: Ship. MMSI: 304906000.

Date/timePositionNaut miles runAvg speedWind from/ knotsBaromVisibWave heightAir tempDewpointWater temp
2015-Apr-16 04:32N 25°32' W 079°60'1313.5
2015-Apr-16 03:33N 25°44' W 080°04'6 5.3
2015-Apr-16 02:30N 25°46' W 080°10'0 0.0
2015-Apr-16 01:06N 25°46' W 080°10'0 0.0
2015-Apr-16 00:30N 25°46' W 080°10'0 0.0
2015-Apr-15 22:29N 25°46' W 080°10'0 0.0
2015-Apr-15 19:28N 25°46' W 080°10'0 0.0
2015-Apr-15 17:24N 25°46' W 080°10'0 0.0
2015-Apr-15 12:32N 25°46' W 080°10'5 4.8
2015-Apr-15 11:33N 25°46' W 080°05'  
2015-Apr-09 04:13N 25°16' W 080°02'1313.4
2015-Apr-09 03:13N 25°29' W 080°00'913.9
2015-Apr-09 02:33N 25°38' W 080°01'1010.2
2015-Apr-09 01:33N 25°46' W 080°09'1 0.8
2015-Apr-09 00:05N 25°46' W 080°10'0 0.0
2015-Apr-08 23:20N 25°46' W 080°10'0 0.0
2015-Apr-08 20:30N 25°46' W 080°10'0 0.0
2015-Apr-08 19:18N 25°46' W 080°10'0 0.0
2015-Apr-08 18:17N 25°46' W 080°10'0 0.0
2015-Apr-08 17:23N 25°46' W 080°10'0 0.0
2015-Apr-08 16:32N 25°46' W 080°10'0 0.0
2015-Apr-08 15:28N 25°46' W 080°10'0 0.0
2015-Apr-08 14:22N 25°46' W 080°10'0 0.0
2015-Apr-08 10:19N 25°46' W 080°10'5 6.2
2015-Apr-08 09:33N 25°46' W 080°05'1313.1
2015-Apr-08 08:33N 25°34' W 080°00'  
Track history (hours):
 
Tides and Currents Weather Stations Pressure Air Temp Water Temp Dewpoint Dewpoint Depression Visibility Wind Speed Wind Dir Waves Ship Positions

Bg Felixstowe

Last reported at 2015-Apr-16 04:32 UTC. Time now 2015-Apr-21 11:40 UTC.
Position N 25°32' W 079°60'.

Length 139 m; draft 6.8 m.

Type: Ship. MMSI: 304906000.

Date/timePositionNaut miles runAvg speedWind from/ knotsBaromVisibWave heightAir tempDewpointWater temp
2015-Apr-16 04:32N 25°32' W 079°60'1313.5
2015-Apr-16 03:33N 25°44' W 080°04'6 5.3
2015-Apr-16 02:30N 25°46' W 080°10'0 0.0
2015-Apr-16 01:06N 25°46' W 080°10'0 0.0
2015-Apr-16 00:30N 25°46' W 080°10'0 0.0
2015-Apr-15 22:29N 25°46' W 080°10'0 0.0
2015-Apr-15 19:28N 25°46' W 080°10'0 0.0
2015-Apr-15 17:24N 25°46' W 080°10'0 0.0
2015-Apr-15 12:32N 25°46' W 080°10'5 4.8
2015-Apr-15 11:33N 25°46' W 080°05'  
2015-Apr-09 04:13N 25°16' W 080°02'1313.4
2015-Apr-09 03:13N 25°29' W 080°00'913.9
2015-Apr-09 02:33N 25°38' W 080°01'1010.2
2015-Apr-09 01:33N 25°46' W 080°09'1 0.8
2015-Apr-09 00:05N 25°46' W 080°10'0 0.0
2015-Apr-08 23:20N 25°46' W 080°10'0 0.0
2015-Apr-08 20:30N 25°46' W 080°10'0 0.0
2015-Apr-08 19:18N 25°46' W 080°10'0 0.0
2015-Apr-08 18:17N 25°46' W 080°10'0 0.0
2015-Apr-08 17:23N 25°46' W 080°10'0 0.0
2015-Apr-08 16:32N 25°46' W 080°10'0 0.0
2015-Apr-08 15:28N 25°46' W 080°10'0 0.0
2015-Apr-08 14:22N 25°46' W 080°10'0 0.0
2015-Apr-08 10:19N 25°46' W 080°10'5 6.2
2015-Apr-08 09:33N 25°46' W 080°05'1313.1
2015-Apr-08 08:33N 25°34' W 080°00'  

Dump ship's entire track history